首页
METAR-TAF:

METAR-TAF

机场 :

伯恩茅斯, 英格兰

纬度: 50-47N, 经度: 001-50W, 海拔: 11米

当前天气观测

该预报发布于23分钟前的07:20 UTC
风速6节,风向西北
温度 9°C
湿度 87%
气压 1018 hPa
能见度10公里或以上
少量云层高于3000英尺
多云层高于4100英尺

METAR: EGHH 030720Z 31006KT 9999 FEW030 BKN041 09/07 Q1018

时间: 08:43 (07:43 UTC)

预报

该预报发布于44分钟前的06:59 UTC
预报有效从03日的 07点(UTC)到 03日的 15点(UTC)
风速6节,风向西转西北
能见度10公里或以上
多云层高于4000英尺

TAF: EGHH 030659Z 0307/0315 29006KT 9999 BKN040

超过4000个机场的气象观测和天气预报(METAR&TAF报告)。

可查询的气象台以黄色和红色小点在地图上表示。

将鼠标移到小点上方,可查看气象台名称。

然后点击查看天气观测和预报。

如需切换地图:点击带黑十字的绿色按钮放大地图;点击带横线的绿色按钮缩小地图;或者点击绿色箭头查看邻近地区的地图。


METAR-TAF: